Terminal Aerodrome Forecast
Issued by NWS

Home | Current Version | Previous Version | Text Only | Print | Product List | Glossary On
Versions: 1 2 3 4 5 6 7 8 9 10 11 12 13 14 15 16 17 18 19
121
FTUS43 KAPX 102339 CCA
TAFMBL
TAF COR
KMBL 102339Z 1100/1124 34010G18KT 6SM -SHSN SCT018 OVC035
      TEMPO 1100/1102 2SM -SHSN OVC018
     FM110200 33009KT 5SM -SHSN OVC035
     FM111300 32008KT P6SM VCSH BKN035
     FM111900 30009KT P6SM BKN035
      AMD LTD TO CLD VIS AND WIND=

USA.gov is the U.S. government's official web portal to all federal, state and local government web resources and services.